sensor_id;sensor_type;location;lat;lon;timestamp;temperature;humidity
20985;DHT22;10651;47.552;7.606;2023-09-19T05:49:36;19.10;99.90
20985;DHT22;10651;47.552;7.606;2023-09-19T05:52:06;19.20;99.90
20985;DHT22;10651;47.552;7.606;2023-09-19T05:54:32;19.10;99.90
20985;DHT22;10651;47.552;7.606;2023-09-19T05:57:00;19.10;99.90
20985;DHT22;10651;47.552;7.606;2023-09-19T05:59:25;19.10;99.90
20985;DHT22;10651;47.552;7.606;2023-09-19T06:01:51;19.10;99.90
20985;DHT22;10651;47.552;7.606;2023-09-19T06:04:17;19.10;99.90
20985;DHT22;10651;47.552;7.606;2023-09-19T06:06:44;19.10;99.90
20985;DHT22;10651;47.552;7.606;2023-09-19T06:09:10;19.10;99.90
20985;DHT22;10651;47.552;7.606;2023-09-19T06:11:36;19.10;99.90
20985;DHT22;10651;47.552;7.606;2023-09-19T06:14:03;19.10;99.90
20985;DHT22;10651;47.552;7.606;2023-09-19T06:16:30;19.10;99.90
20985;DHT22;10651;47.552;7.606;2023-09-19T06:18:57;19.10;99.90
20985;DHT22;10651;47.552;7.606;2023-09-19T06:21:24;19.10;99.90
20985;DHT22;10651;47.552;7.606;2023-09-19T06:23:49;19.20;99.90
20985;DHT22;10651;47.552;7.606;2023-09-19T06:26:15;19.20;99.90
20985;DHT22;10651;47.552;7.606;2023-09-19T06:28:41;19.20;99.90
20985;DHT22;10651;47.552;7.606;2023-09-19T06:31:08;19.20;99.90
20985;DHT22;10651;47.552;7.606;2023-09-19T06:33:36;19.20;99.90
20985;DHT22;10651;47.552;7.606;2023-09-19T06:36:05;19.30;99.90
20985;DHT22;10651;47.552;7.606;2023-09-19T06:38:31;19.30;99.90
20985;DHT22;10651;47.552;7.606;2023-09-19T06:41:00;19.20;99.90
20985;DHT22;10651;47.552;7.606;2023-09-19T06:43:26;19.30;99.90
20985;DHT22;10651;47.552;7.606;2023-09-19T06:45:54;19.20;99.90
20985;DHT22;10651;47.552;7.606;2023-09-19T06:48:20;19.30;99.90
20985;DHT22;10651;47.552;7.606;2023-09-19T06:50:46;19.20;99.90
20985;DHT22;10651;47.552;7.606;2023-09-19T06:53:13;19.10;99.90
20985;DHT22;10651;47.552;7.606;2023-09-19T06:55:39;19.10;99.90
20985;DHT22;10651;47.552;7.606;2023-09-19T06:58:05;19.20;99.90
20985;DHT22;10651;47.552;7.606;2023-09-19T07:00:31;19.20;99.90
20985;DHT22;10651;47.552;7.606;2023-09-19T07:03:03;19.30;99.90
20985;DHT22;10651;47.552;7.606;2023-09-19T07:05:31;19.40;99.90
20985;DHT22;10651;47.552;7.606;2023-09-19T07:07:59;19.50;99.90
20985;DHT22;10651;47.552;7.606;2023-09-19T07:10:25;19.40;99.90
20985;DHT22;10651;47.552;7.606;2023-09-19T07:15:25;19.40;99.90
20985;DHT22;10651;47.552;7.606;2023-09-19T07:17:52;19.40;99.90
20985;DHT22;10651;47.552;7.606;2023-09-19T07:20:19;19.40;99.90
20985;DHT22;10651;47.552;7.606;2023-09-19T07:22:45;19.40;99.90
20985;DHT22;10651;47.552;7.606;2023-09-19T07:25:12;19.40;99.90
20985;DHT22;10651;47.552;7.606;2023-09-19T07:27:41;19.50;99.90
20985;DHT22;10651;47.552;7.606;2023-09-19T07:30:07;19.60;99.90
20985;DHT22;10651;47.552;7.606;2023-09-19T07:32:34;19.70;99.90
20985;DHT22;10651;47.552;7.606;2023-09-19T07:35:02;19.70;99.90
20985;DHT22;10651;47.552;7.606;2023-09-19T07:37:29;19.80;99.90
20985;DHT22;10651;47.552;7.606;2023-09-19T07:39:56;19.80;99.90
20985;DHT22;10651;47.552;7.606;2023-09-19T07:42:22;20.10;99.90
20985;DHT22;10651;47.552;7.606;2023-09-19T07:44:48;20.20;99.90
20985;DHT22;10651;47.552;7.606;2023-09-19T07:47:16;20.30;99.90
20985;DHT22;10651;47.552;7.606;2023-09-19T07:49:42;20.30;99.90
20985;DHT22;10651;47.552;7.606;2023-09-19T07:52:08;20.40;99.90
20985;DHT22;10651;47.552;7.606;2023-09-19T07:54:35;20.40;99.90
20985;DHT22;10651;47.552;7.606;2023-09-19T07:57:04;20.50;99.90
20985;DHT22;10651;47.552;7.606;2023-09-19T07:59:30;20.40;99.90
20985;DHT22;10651;47.552;7.606;2023-09-19T08:01:55;20.40;99.90
20985;DHT22;10651;47.552;7.606;2023-09-19T08:04:21;20.70;99.90
20985;DHT22;10651;47.552;7.606;2023-09-19T08:06:47;21.00;99.90
20985;DHT22;10651;47.552;7.606;2023-09-19T08:09:12;21.00;99.90
20985;DHT22;10651;47.552;7.606;2023-09-19T08:11:42;20.90;99.90
20985;DHT22;10651;47.552;7.606;2023-09-19T08:14:09;21.00;99.90
20985;DHT22;10651;47.552;7.606;2023-09-19T08:16:35;20.90;99.90
20985;DHT22;10651;47.552;7.606;2023-09-19T08:19:00;21.10;99.90
20985;DHT22;10651;47.552;7.606;2023-09-19T08:21:26;21.50;99.90
20985;DHT22;10651;47.552;7.606;2023-09-19T08:23:54;21.70;99.90
20985;DHT22;10651;47.552;7.606;2023-09-19T08:26:20;21.90;99.90
20985;DHT22;10651;47.552;7.606;2023-09-19T08:28:47;22.10;99.90
20985;DHT22;10651;47.552;7.606;2023-09-19T08:31:13;22.30;99.90
20985;DHT22;10651;47.552;7.606;2023-09-19T08:33:39;22.40;99.90
20985;DHT22;10651;47.552;7.606;2023-09-19T08:36:06;22.30;99.90
20985;DHT22;10651;47.552;7.606;2023-09-19T08:38:34;22.00;99.90
20985;DHT22;10651;47.552;7.606;2023-09-19T08:41:00;22.00;99.90
20985;DHT22;10651;47.552;7.606;2023-09-19T08:43:26;21.80;99.90
20985;DHT22;10651;47.552;7.606;2023-09-19T08:46:03;22.10;99.90
20985;DHT22;10651;47.552;7.606;2023-09-19T08:48:32;22.40;99.90
20985;DHT22;10651;47.552;7.606;2023-09-19T08:51:18;22.50;99.90
20985;DHT22;10651;47.552;7.606;2023-09-19T08:53:54;22.60;99.90
20985;DHT22;10651;47.552;7.606;2023-09-19T08:56:25;22.80;99.90
20985;DHT22;10651;47.552;7.606;2023-09-19T08:59:00;23.00;99.90
20985;DHT22;10651;47.552;7.606;2023-09-19T09:01:28;23.10;99.90
20985;DHT22;10651;47.552;7.606;2023-09-19T09:03:56;23.30;99.90
20985;DHT22;10651;47.552;7.606;2023-09-19T09:06:23;23.30;99.90
20985;DHT22;10651;47.552;7.606;2023-09-19T09:08:52;23.40;99.90
20985;DHT22;10651;47.552;7.606;2023-09-19T09:11:18;23.60;99.90
20985;DHT22;10651;47.552;7.606;2023-09-19T09:13:45;23.80;99.90
20985;DHT22;10651;47.552;7.606;2023-09-19T09:16:12;23.50;99.90
20985;DHT22;10651;47.552;7.606;2023-09-19T09:18:39;23.10;99.90
20985;DHT22;10651;47.552;7.606;2023-09-19T09:21:05;23.20;99.90
20985;DHT22;10651;47.552;7.606;2023-09-19T09:23:31;23.40;99.90
20985;DHT22;10651;47.552;7.606;2023-09-19T09:26:00;23.80;99.90
20985;DHT22;10651;47.552;7.606;2023-09-19T09:28:29;24.00;99.90
20985;DHT22;10651;47.552;7.606;2023-09-19T09:30:56;24.40;99.90
20985;DHT22;10651;47.552;7.606;2023-09-19T09:33:23;24.70;99.90
20985;DHT22;10651;47.552;7.606;2023-09-19T09:35:57;24.80;99.90
20985;DHT22;10651;47.552;7.606;2023-09-19T09:38:26;24.90;99.90
20985;DHT22;10651;47.552;7.606;2023-09-19T09:40:56;24.80;99.90
20985;DHT22;10651;47.552;7.606;2023-09-19T09:43:39;24.90;99.90
20985;DHT22;10651;47.552;7.606;2023-09-19T09:46:17;24.40;99.90
20985;DHT22;10651;47.552;7.606;2023-09-19T09:48:46;24.00;99.90
20985;DHT22;10651;47.552;7.606;2023-09-19T09:51:32;24.60;99.90
20985;DHT22;10651;47.552;7.606;2023-09-19T09:54:15;25.10;99.90
20985;DHT22;10651;47.552;7.606;2023-09-19T09:56:58;25.30;99.90
20985;DHT22;10651;47.552;7.606;2023-09-19T09:59:53;25.10;99.90
20985;DHT22;10651;47.552;7.606;2023-09-19T10:02:25;25.10;99.90
20985;DHT22;10651;47.552;7.606;2023-09-19T10:04:55;25.30;99.90
20985;DHT22;10651;47.552;7.606;2023-09-19T10:07:44;25.50;99.90
20985;DHT22;10651;47.552;7.606;2023-09-19T10:10:35;25.70;99.90
20985;DHT22;10651;47.552;7.606;2023-09-19T10:13:11;26.00;99.90
20985;DHT22;10651;47.552;7.606;2023-09-19T10:15:51;26.10;99.90
20985;DHT22;10651;47.552;7.606;2023-09-19T10:18:24;25.80;99.90
20985;DHT22;10651;47.552;7.606;2023-09-19T10:20:51;25.70;99.90
20985;DHT22;10651;47.552;7.606;2023-09-19T10:23:18;25.20;99.90
20985;DHT22;10651;47.552;7.606;2023-09-19T10:25:52;25.60;99.90
20985;DHT22;10651;47.552;7.606;2023-09-19T10:28:19;25.90;99.90
20985;DHT22;10651;47.552;7.606;2023-09-19T10:30:53;26.30;99.90
20985;DHT22;10651;47.552;7.606;2023-09-19T10:33:24;26.60;99.90
20985;DHT22;10651;47.552;7.606;2023-09-19T10:35:56;27.10;99.90
20985;DHT22;10651;47.552;7.606;2023-09-19T10:38:26;26.30;99.90
20985;DHT22;10651;47.552;7.606;2023-09-19T10:40:56;25.90;99.90
20985;DHT22;10651;47.552;7.606;2023-09-19T10:43:28;26.00;99.90
20985;DHT22;10651;47.552;7.606;2023-09-19T10:46:00;25.50;99.90
20985;DHT22;10651;47.552;7.606;2023-09-19T10:48:26;25.40;99.90
20985;DHT22;10651;47.552;7.606;2023-09-19T10:51:18;24.90;99.90
20985;DHT22;10651;47.552;7.606;2023-09-19T10:54:11;24.80;99.90
20985;DHT22;10651;47.552;7.606;2023-09-19T10:56:43;25.50;99.90
20985;DHT22;10651;47.552;7.606;2023-09-19T10:59:16;26.00;99.90
20985;DHT22;10651;47.552;7.606;2023-09-19T11:04:33;28.80;99.90
20985;DHT22;10651;47.552;7.606;2023-09-19T11:12:08;34.30;99.90
20985;DHT22;10651;47.552;7.606;2023-09-19T11:14:38;37.50;99.90
20985;DHT22;10651;47.552;7.606;2023-09-19T11:25:41;41.20;90.40
20985;DHT22;10651;47.552;7.606;2023-09-19T11:30:47;42.50;83.90
20985;DHT22;10651;47.552;7.606;2023-09-19T11:36:06;43.60;77.60
20985;DHT22;10651;47.552;7.606;2023-09-19T11:46:27;45.50;66.90
20985;DHT22;10651;47.552;7.606;2023-09-19T11:48:53;45.00;63.10
20985;DHT22;10651;47.552;7.606;2023-09-19T11:51:21;45.00;64.60
20985;DHT22;10651;47.552;7.606;2023-09-19T11:53:57;45.70;62.80
20985;DHT22;10651;47.552;7.606;2023-09-19T11:56:26;45.90;59.70
20985;DHT22;10651;47.552;7.606;2023-09-19T11:58:57;45.60;60.80
20985;DHT22;10651;47.552;7.606;2023-09-19T12:01:34;46.70;58.80
20985;DHT22;10651;47.552;7.606;2023-09-19T12:04:02;47.50;59.00
20985;DHT22;10651;47.552;7.606;2023-09-19T12:06:30;48.20;56.40
20985;DHT22;10651;47.552;7.606;2023-09-19T12:08:58;46.70;57.20
20985;DHT22;10651;47.552;7.606;2023-09-19T12:11:31;47.70;56.80
20985;DHT22;10651;47.552;7.606;2023-09-19T12:14:02;48.80;55.30
20985;DHT22;10651;47.552;7.606;2023-09-19T12:16:28;49.10;55.60
20985;DHT22;10651;47.552;7.606;2023-09-19T12:18:57;48.70;53.80
20985;DHT22;10651;47.552;7.606;2023-09-19T12:21:30;46.60;54.10
20985;DHT22;10651;47.552;7.606;2023-09-19T12:24:06;45.10;57.20
20985;DHT22;10651;47.552;7.606;2023-09-19T12:26:39;46.20;57.00
20985;DHT22;10651;47.552;7.606;2023-09-19T12:29:17;46.00;56.80
20985;DHT22;10651;47.552;7.606;2023-09-19T12:34:21;41.80;56.80
20985;DHT22;10651;47.552;7.606;2023-09-19T12:36:48;43.50;59.80
20985;DHT22;10651;47.552;7.606;2023-09-19T12:39:26;44.10;55.70
20985;DHT22;10651;47.552;7.606;2023-09-19T12:41:52;39.80;61.60
20985;DHT22;10651;47.552;7.606;2023-09-19T12:44:19;39.40;61.30
20985;DHT22;10651;47.552;7.606;2023-09-19T12:46:45;37.20;63.00
20985;DHT22;10651;47.552;7.606;2023-09-19T12:49:18;34.80;69.60
20985;DHT22;10651;47.552;7.606;2023-09-19T12:51:45;33.00;73.50
20985;DHT22;10651;47.552;7.606;2023-09-19T12:54:12;34.40;75.80
20985;DHT22;10651;47.552;7.606;2023-09-19T12:56:41;32.90;76.90
20985;DHT22;10651;47.552;7.606;2023-09-19T12:59:11;32.30;78.40
20985;DHT22;10651;47.552;7.606;2023-09-19T13:01:39;37.80;73.20
20985;DHT22;10651;47.552;7.606;2023-09-19T13:04:21;41.50;65.80
20985;DHT22;10651;47.552;7.606;2023-09-19T13:06:55;41.30;62.80
20985;DHT22;10651;47.552;7.606;2023-09-19T13:12:05;36.90;66.20
20985;DHT22;10651;47.552;7.606;2023-09-19T13:15:10;37.90;68.20
20985;DHT22;10651;47.552;7.606;2023-09-19T13:17:49;38.70;64.30
20985;DHT22;10651;47.552;7.606;2023-09-19T13:22:53;40.10;66.80
20985;DHT22;10651;47.552;7.606;2023-09-19T13:25:26;41.40;63.70
20985;DHT22;10651;47.552;7.606;2023-09-19T13:27:56;43.50;60.90
20985;DHT22;10651;47.552;7.606;2023-09-19T13:30:24;44.80;59.50
20985;DHT22;10651;47.552;7.606;2023-09-19T13:32:51;45.80;56.80
20985;DHT22;10651;47.552;7.606;2023-09-19T13:35:18;46.20;56.50
20985;DHT22;10651;47.552;7.606;2023-09-19T13:37:44;46.40;55.10
20985;DHT22;10651;47.552;7.606;2023-09-19T13:40:15;47.10;54.60
20985;DHT22;10651;47.552;7.606;2023-09-19T13:42:41;48.90;53.90
20985;DHT22;10651;47.552;7.606;2023-09-19T13:45:07;49.10;51.30
20985;DHT22;10651;47.552;7.606;2023-09-19T13:47:37;48.40;51.60
20985;DHT22;10651;47.552;7.606;2023-09-19T13:50:04;48.40;51.40
20985;DHT22;10651;47.552;7.606;2023-09-19T13:52:31;47.30;50.50
20985;DHT22;10651;47.552;7.606;2023-09-19T13:54:57;46.90;51.50
20985;DHT22;10651;47.552;7.606;2023-09-19T13:57:26;46.00;51.80
20985;DHT22;10651;47.552;7.606;2023-09-19T13:59:53;46.00;51.30
20985;DHT22;10651;47.552;7.606;2023-09-19T14:02:22;46.10;51.60
20985;DHT22;10651;47.552;7.606;2023-09-19T14:04:53;45.40;51.80
20985;DHT22;10651;47.552;7.606;2023-09-19T14:07:20;45.50;52.30
20985;DHT22;10651;47.552;7.606;2023-09-19T14:09:46;44.90;52.10
20985;DHT22;10651;47.552;7.606;2023-09-19T14:12:12;43.70;52.70
20985;DHT22;10651;47.552;7.606;2023-09-19T14:14:38;43.90;53.80
20985;DHT22;10651;47.552;7.606;2023-09-19T14:17:04;41.70;53.40
20985;DHT22;10651;47.552;7.606;2023-09-19T14:19:30;39.10;56.00
20985;DHT22;10651;47.552;7.606;2023-09-19T14:21:56;36.80;59.10
20985;DHT22;10651;47.552;7.606;2023-09-19T14:24:22;35.00;62.20
20985;DHT22;10651;47.552;7.606;2023-09-19T14:26:48;34.00;64.40
20985;DHT22;10651;47.552;7.606;2023-09-19T14:29:15;33.60;66.50
20985;DHT22;10651;47.552;7.606;2023-09-19T14:31:41;33.30;68.60
20985;DHT22;10651;47.552;7.606;2023-09-19T14:34:07;32.70;70.30
20985;DHT22;10651;47.552;7.606;2023-09-19T14:36:36;32.40;70.90
20985;DHT22;10651;47.552;7.606;2023-09-19T14:39:02;31.70;72.20
20985;DHT22;10651;47.552;7.606;2023-09-19T14:41:28;31.30;74.50
20985;DHT22;10651;47.552;7.606;2023-09-19T14:43:54;30.80;75.40
20985;DHT22;10651;47.552;7.606;2023-09-19T14:46:21;30.60;77.40
20985;DHT22;10651;47.552;7.606;2023-09-19T14:48:47;30.60;76.60
20985;DHT22;10651;47.552;7.606;2023-09-19T14:51:13;30.40;79.20
20985;DHT22;10651;47.552;7.606;2023-09-19T14:53:40;30.40;80.40
20985;DHT22;10651;47.552;7.606;2023-09-19T14:56:10;30.50;79.80
20985;DHT22;10651;47.552;7.606;2023-09-19T14:58:37;30.30;79.60
20985;DHT22;10651;47.552;7.606;2023-09-19T15:01:08;29.90;81.30
20985;DHT22;10651;47.552;7.606;2023-09-19T15:03:36;29.70;82.80
20985;DHT22;10651;47.552;7.606;2023-09-19T15:06:03;29.50;83.90
20985;DHT22;10651;47.552;7.606;2023-09-19T15:08:33;29.60;83.80
20985;DHT22;10651;47.552;7.606;2023-09-19T15:11:01;29.60;83.80
20985;DHT22;10651;47.552;7.606;2023-09-19T15:13:36;29.40;84.10
20985;DHT22;10651;47.552;7.606;2023-09-19T15:16:03;29.30;85.10
20985;DHT22;10651;47.552;7.606;2023-09-19T15:18:29;29.10;88.10
20985;DHT22;10651;47.552;7.606;2023-09-19T15:20:57;28.90;89.30
20985;DHT22;10651;47.552;7.606;2023-09-19T15:23:25;28.60;90.10
20985;DHT22;10651;47.552;7.606;2023-09-19T15:25:51;28.30;90.20
20985;DHT22;10651;47.552;7.606;2023-09-19T15:28:18;28.30;91.00
20985;DHT22;10651;47.552;7.606;2023-09-19T15:30:56;28.20;91.00
20985;DHT22;10651;47.552;7.606;2023-09-19T15:33:22;28.20;91.00
20985;DHT22;10651;47.552;7.606;2023-09-19T15:35:48;28.20;92.40
20985;DHT22;10651;47.552;7.606;2023-09-19T15:38:14;28.20;92.60
20985;DHT22;10651;47.552;7.606;2023-09-19T15:40:46;27.90;92.70
20985;DHT22;10651;47.552;7.606;2023-09-19T15:43:12;27.80;92.80
20985;DHT22;10651;47.552;7.606;2023-09-19T15:45:38;27.80;93.30
20985;DHT22;10651;47.552;7.606;2023-09-19T15:48:04;27.80;93.40
20985;DHT22;10651;47.552;7.606;2023-09-19T15:50:30;27.70;93.50
20985;DHT22;10651;47.552;7.606;2023-09-19T15:52:56;27.50;94.50
20985;DHT22;10651;47.552;7.606;2023-09-19T15:55:21;27.60;94.70
20985;DHT22;10651;47.552;7.606;2023-09-19T15:57:47;27.50;94.90
20985;DHT22;10651;47.552;7.606;2023-09-19T16:00:14;27.50;95.10
20985;DHT22;10651;47.552;7.606;2023-09-19T16:02:44;27.30;95.10
20985;DHT22;10651;47.552;7.606;2023-09-19T16:05:10;27.30;95.70
20985;DHT22;10651;47.552;7.606;2023-09-19T16:07:37;27.20;94.90
20985;DHT22;10651;47.552;7.606;2023-09-19T16:10:04;27.20;95.50
20985;DHT22;10651;47.552;7.606;2023-09-19T16:12:29;27.10;96.10
20985;DHT22;10651;47.552;7.606;2023-09-19T16:14:56;27.10;96.00
20985;DHT22;10651;47.552;7.606;2023-09-19T16:17:21;26.80;96.40
20985;DHT22;10651;47.552;7.606;2023-09-19T16:19:47;26.70;96.40
20985;DHT22;10651;47.552;7.606;2023-09-19T16:22:13;26.60;97.20
20985;DHT22;10651;47.552;7.606;2023-09-19T16:24:39;26.70;96.90
20985;DHT22;10651;47.552;7.606;2023-09-19T16:27:05;26.40;97.60
20985;DHT22;10651;47.552;7.606;2023-09-19T16:29:31;26.30;98.50
20985;DHT22;10651;47.552;7.606;2023-09-19T16:31:57;26.10;99.00
20985;DHT22;10651;47.552;7.606;2023-09-19T16:34:22;26.00;99.40
20985;DHT22;10651;47.552;7.606;2023-09-19T16:36:48;25.80;99.90
20985;DHT22;10651;47.552;7.606;2023-09-19T16:39:14;25.70;99.90
20985;DHT22;10651;47.552;7.606;2023-09-19T16:41:39;25.60;99.90
20985;DHT22;10651;47.552;7.606;2023-09-19T16:44:06;25.40;99.90
20985;DHT22;10651;47.552;7.606;2023-09-19T16:46:34;25.10;99.90
20985;DHT22;10651;47.552;7.606;2023-09-19T16:49:00;25.00;99.90
20985;DHT22;10651;47.552;7.606;2023-09-19T16:51:26;25.00;99.90
20985;DHT22;10651;47.552;7.606;2023-09-19T16:53:52;24.90;99.90
20985;DHT22;10651;47.552;7.606;2023-09-19T16:56:20;24.80;99.90
20985;DHT22;10651;47.552;7.606;2023-09-19T16:58:47;24.70;99.90
20985;DHT22;10651;47.552;7.606;2023-09-19T17:01:14;24.60;99.90
20985;DHT22;10651;47.552;7.606;2023-09-19T17:03:42;24.50;99.90
20985;DHT22;10651;47.552;7.606;2023-09-19T17:06:09;24.40;99.90
20985;DHT22;10651;47.552;7.606;2023-09-19T17:08:36;24.20;99.90
20985;DHT22;10651;47.552;7.606;2023-09-19T17:11:03;24.10;99.90
20985;DHT22;10651;47.552;7.606;2023-09-19T17:13:29;24.10;99.90
20985;DHT22;10651;47.552;7.606;2023-09-19T17:16:15;24.00;99.90
20985;DHT22;10651;47.552;7.606;2023-09-19T17:18:50;24.00;99.90
20985;DHT22;10651;47.552;7.606;2023-09-19T17:21:16;23.90;99.90
20985;DHT22;10651;47.552;7.606;2023-09-19T17:23:42;23.90;99.90
20985;DHT22;10651;47.552;7.606;2023-09-19T17:26:09;23.80;99.90
20985;DHT22;10651;47.552;7.606;2023-09-19T17:28:36;23.70;99.90
20985;DHT22;10651;47.552;7.606;2023-09-19T17:31:09;23.80;99.90
20985;DHT22;10651;47.552;7.606;2023-09-19T17:33:36;23.70;99.90
20985;DHT22;10651;47.552;7.606;2023-09-19T17:38:36;23.50;99.90
20985;DHT22;10651;47.552;7.606;2023-09-19T17:41:03;23.50;99.90
20985;DHT22;10651;47.552;7.606;2023-09-19T17:43:31;23.50;99.90
20985;DHT22;10651;47.552;7.606;2023-09-19T17:46:08;23.40;99.90
20985;DHT22;10651;47.552;7.606;2023-09-19T17:48:39;23.40;99.90
20985;DHT22;10651;47.552;7.606;2023-09-19T17:51:06;23.30;99.90
20985;DHT22;10651;47.552;7.606;2023-09-19T17:53:32;23.20;99.90
20985;DHT22;10651;47.552;7.606;2023-09-19T17:56:00;23.20;99.90
20985;DHT22;10651;47.552;7.606;2023-09-19T17:58:27;23.10;99.90
20985;DHT22;10651;47.552;7.606;2023-09-19T18:00:53;23.20;99.90
20985;DHT22;10651;47.552;7.606;2023-09-19T18:03:19;23.10;99.90
20985;DHT22;10651;47.552;7.606;2023-09-19T18:05:50;23.10;99.90
20985;DHT22;10651;47.552;7.606;2023-09-19T18:08:17;23.00;99.90
20985;DHT22;10651;47.552;7.606;2023-09-19T18:10:44;23.00;99.90
20985;DHT22;10651;47.552;7.606;2023-09-19T18:13:09;22.80;99.90
20985;DHT22;10651;47.552;7.606;2023-09-19T18:15:36;22.70;99.90
20985;DHT22;10651;47.552;7.606;2023-09-19T18:18:06;22.80;99.90
20985;DHT22;10651;47.552;7.606;2023-09-19T18:20:37;22.70;99.90
20985;DHT22;10651;47.552;7.606;2023-09-19T18:23:08;22.70;99.90
20985;DHT22;10651;47.552;7.606;2023-09-19T18:25:34;22.60;99.90
20985;DHT22;10651;47.552;7.606;2023-09-19T18:28:01;22.60;99.90
20985;DHT22;10651;47.552;7.606;2023-09-19T18:30:28;22.60;99.90
20985;DHT22;10651;47.552;7.606;2023-09-19T18:32:54;22.50;99.90
20985;DHT22;10651;47.552;7.606;2023-09-19T18:35:21;22.50;99.90
20985;DHT22;10651;47.552;7.606;2023-09-19T18:37:49;22.50;99.90
20985;DHT22;10651;47.552;7.606;2023-09-19T18:40:17;22.40;99.90
20985;DHT22;10651;47.552;7.606;2023-09-19T18:42:43;22.40;99.90
20985;DHT22;10651;47.552;7.606;2023-09-19T18:45:09;22.40;99.90
20985;DHT22;10651;47.552;7.606;2023-09-19T18:47:38;22.40;99.90
20985;DHT22;10651;47.552;7.606;2023-09-19T18:50:04;22.40;99.90
20985;DHT22;10651;47.552;7.606;2023-09-19T18:52:31;22.30;99.90
20985;DHT22;10651;47.552;7.606;2023-09-19T18:54:57;22.30;99.90
20985;DHT22;10651;47.552;7.606;2023-09-19T18:57:23;22.30;99.90
20985;DHT22;10651;47.552;7.606;2023-09-19T18:59:48;22.20;99.90
20985;DHT22;10651;47.552;7.606;2023-09-19T19:02:14;22.20;99.90
20985;DHT22;10651;47.552;7.606;2023-09-19T19:04:40;22.10;99.90
20985;DHT22;10651;47.552;7.606;2023-09-19T19:07:07;22.00;99.90
20985;DHT22;10651;47.552;7.606;2023-09-19T19:09:36;22.00;99.90
20985;DHT22;10651;47.552;7.606;2023-09-19T19:12:01;22.00;99.90
20985;DHT22;10651;47.552;7.606;2023-09-19T19:14:27;22.00;99.90
20985;DHT22;10651;47.552;7.606;2023-09-19T19:16:53;22.00;99.90
20985;DHT22;10651;47.552;7.606;2023-09-19T19:19:19;22.00;99.90
20985;DHT22;10651;47.552;7.606;2023-09-19T19:21:45;22.00;99.90
20985;DHT22;10651;47.552;7.606;2023-09-19T19:24:11;21.90;99.90
20985;DHT22;10651;47.552;7.606;2023-09-19T19:26:38;21.80;99.90
20985;DHT22;10651;47.552;7.606;2023-09-19T19:29:04;21.80;99.90
20985;DHT22;10651;47.552;7.606;2023-09-19T19:31:30;21.80;99.90
20985;DHT22;10651;47.552;7.606;2023-09-19T19:33:59;21.70;99.90
20985;DHT22;10651;47.552;7.606;2023-09-19T19:36:24;21.70;99.90
20985;DHT22;10651;47.552;7.606;2023-09-19T19:38:51;21.60;99.90
20985;DHT22;10651;47.552;7.606;2023-09-19T19:41:17;21.50;99.90
20985;DHT22;10651;47.552;7.606;2023-09-19T19:43:43;21.40;99.90
20985;DHT22;10651;47.552;7.606;2023-09-19T19:46:11;21.30;99.90
20985;DHT22;10651;47.552;7.606;2023-09-19T19:48:37;21.30;99.90
20985;DHT22;10651;47.552;7.606;2023-09-19T19:51:07;21.30;99.90
20985;DHT22;10651;47.552;7.606;2023-09-19T19:53:33;21.30;99.90
20985;DHT22;10651;47.552;7.606;2023-09-19T19:55:59;21.20;99.90
20985;DHT22;10651;47.552;7.606;2023-09-19T19:58:26;21.20;99.90
20985;DHT22;10651;47.552;7.606;2023-09-19T20:00:58;21.00;99.90
20985;DHT22;10651;47.552;7.606;2023-09-19T20:03:25;21.00;99.90
20985;DHT22;10651;47.552;7.606;2023-09-19T20:05:51;21.00;99.90
20985;DHT22;10651;47.552;7.606;2023-09-19T20:08:18;21.00;99.90
20985;DHT22;10651;47.552;7.606;2023-09-19T20:10:44;20.90;99.90
20985;DHT22;10651;47.552;7.606;2023-09-19T20:13:10;20.90;99.90
20985;DHT22;10651;47.552;7.606;2023-09-19T20:15:40;20.80;99.90
20985;DHT22;10651;47.552;7.606;2023-09-19T20:18:06;20.80;99.90
20985;DHT22;10651;47.552;7.606;2023-09-19T20:20:38;20.70;99.90
20985;DHT22;10651;47.552;7.606;2023-09-19T20:23:04;20.60;99.90
20985;DHT22;10651;47.552;7.606;2023-09-19T20:25:35;20.60;99.90
20985;DHT22;10651;47.552;7.606;2023-09-19T20:28:04;20.50;99.90
20985;DHT22;10651;47.552;7.606;2023-09-19T20:30:30;20.40;99.90
20985;DHT22;10651;47.552;7.606;2023-09-19T20:32:57;20.40;99.90
20985;DHT22;10651;47.552;7.606;2023-09-19T20:35:27;20.30;99.90
20985;DHT22;10651;47.552;7.606;2023-09-19T20:37:52;20.30;99.90
20985;DHT22;10651;47.552;7.606;2023-09-19T20:40:25;20.20;99.90
20985;DHT22;10651;47.552;7.606;2023-09-19T20:42:51;20.20;99.90
20985;DHT22;10651;47.552;7.606;2023-09-19T20:45:19;20.20;99.90
20985;DHT22;10651;47.552;7.606;2023-09-19T20:47:45;20.10;99.90
20985;DHT22;10651;47.552;7.606;2023-09-19T20:50:11;20.10;99.90
20985;DHT22;10651;47.552;7.606;2023-09-19T20:52:37;20.00;99.90
20985;DHT22;10651;47.552;7.606;2023-09-19T20:55:04;20.00;99.90
20985;DHT22;10651;47.552;7.606;2023-09-19T20:57:30;19.90;99.90
20985;DHT22;10651;47.552;7.606;2023-09-19T20:59:56;19.90;99.90
20985;DHT22;10651;47.552;7.606;2023-09-19T21:02:22;19.90;99.90
